地図

経路データ

SID SEASON NUMBER BASIN SUBBASIN NAME ISO_TIME NATURE LAT LON WMO_WIND WMO_PRES WMO_AGENCY TRACK_TYPE DIST2LAND LANDFALL IFLAG USA_AGENCY USA_ATCF_ID USA_LAT USA_LON USA_RECORD USA_STATUS USA_WIND USA_PRES USA_SSHS USA_R34_NE USA_R34_SE USA_R34_SW USA_R34_NW USA_R50_NE USA_R50_SE USA_R50_SW USA_R50_NW USA_R64_NE USA_R64_SE USA_R64_SW USA_R64_NW USA_POCI USA_ROCI USA_RMW USA_EYE TOKYO_LAT TOKYO_LON TOKYO_GRADE TOKYO_WIND TOKYO_PRES TOKYO_R50_DIR TOKYO_R50_LONG TOKYO_R50_SHORT TOKYO_R30_DIR TOKYO_R30_LONG TOKYO_R30_SHORT TOKYO_LAND CMA_LAT CMA_LON CMA_CAT CMA_WIND CMA_PRES HKO_LAT HKO_LON HKO_CAT HKO_WIND HKO_PRES NEWDELHI_LAT NEWDELHI_LON NEWDELHI_GRADE NEWDELHI_WIND NEWDELHI_PRES NEWDELHI_CI NEWDELHI_DP NEWDELHI_POCI REUNION_LAT REUNION_LON REUNION_TYPE REUNION_WIND REUNION_PRES REUNION_TNUM REUNION_CI REUNION_RMW REUNION_R34_NE REUNION_R34_SE REUNION_R34_SW REUNION_R34_NW REUNION_R50_NE REUNION_R50_SE REUNION_R50_SW REUNION_R50_NW REUNION_R64_NE REUNION_R64_SE REUNION_R64_SW REUNION_R64_NW BOM_LAT BOM_LON BOM_TYPE BOM_WIND BOM_PRES BOM_TNUM BOM_CI BOM_RMW BOM_R34_NE BOM_R34_SE BOM_R34_SW BOM_R34_NW BOM_R50_NE BOM_R50_SE BOM_R50_SW BOM_R50_NW BOM_R64_NE BOM_R64_SE BOM_R64_SW BOM_R64_NW BOM_ROCI BOM_POCI BOM_EYE BOM_POS_METHOD BOM_PRES_METHOD NADI_LAT NADI_LON NADI_CAT NADI_WIND NADI_PRES WELLINGTON_LAT WELLINGTON_LON WELLINGTON_WIND WELLINGTON_PRES DS824_LAT DS824_LON DS824_STAGE DS824_WIND DS824_PRES TD9636_LAT TD9636_LON TD9636_STAGE TD9636_WIND TD9636_PRES TD9635_LAT TD9635_LON TD9635_WIND TD9635_PRES TD9635_ROCI NEUMANN_LAT NEUMANN_LON NEUMANN_CLASS NEUMANN_WIND NEUMANN_PRES MLC_LAT MLC_LON MLC_CLASS MLC_WIND MLC_PRES USA_GUST BOM_GUST BOM_GUST_PER REUNION_GUST REUNION_GUST_PER USA_SEAHGT USA_SEARAD_NE USA_SEARAD_SE USA_SEARAD_SW USA_SEARAD_NW STORM_SPEED STORM_DIR
1941219N11152 1941 41 WP MM NOT_NAMED 1941-08-06 21:00:00 NR 10.8000 152.000 main 1517 1517 __________O___ -1 10.8000 152.000 7 20 304
1941219N11152 1941 41 WP MM NOT_NAMED 1941-08-07 00:00:00 NR 11.3558 151.149 main 1567 1564 __________P___ -1 11.3558 151.149 7 20 304
1941219N11152 1941 41 WP MM NOT_NAMED 1941-08-07 03:00:00 NR 11.8982 150.346 main 1601 1601 __________P___ -1 11.8982 150.346 7 18 306
1941219N11152 1941 41 WP MM NOT_NAMED 1941-08-07 06:00:00 NR 12.4163 149.646 main 1642 1642 __________P___ -1 12.4163 149.646 7 16 309
1941219N11152 1941 41 WP MM NOT_NAMED 1941-08-07 09:00:00 NR 12.9000 149.100 main 1691 1691 __________O___ -1 12.9000 149.100 4 13 316
1941219N11152 1941 41 WP MM NOT_NAMED 1941-08-07 12:00:00 NR 13.3427 148.743 main 1731 1731 __________P___ -1 13.3427 148.743 4 10 327
1941219N11152 1941 41 WP MM NOT_NAMED 1941-08-07 15:00:00 NR 13.7509 148.533 main 1785 1785 __________P___ -1 13.7509 148.533 4 9 337
1941219N11152 1941 41 WP MM NOT_NAMED 1941-08-07 18:00:00 NR 14.1337 148.406 main 1818 1818 __________P___ -1 14.1337 148.406 4 8 343
1941219N11152 1941 41 WP MM NOT_NAMED 1941-08-07 21:00:00 NR 14.5000 148.300 main 1862 1862 __________O___ -1 14.5000 148.300 4 8 339
1941219N11152 1941 41 WP MM NOT_NAMED 1941-08-08 00:00:00 NR 14.8643 148.118 main 1906 1906 __________P___ -1 14.8643 148.118 4 8 334
1941219N11152 1941 41 WP MM NOT_NAMED 1941-08-08 03:00:00 NR 15.2149 147.942 main 1938 1938 __________P___ -1 15.2149 147.942 4 8 334
1941219N11152 1941 41 WP MM NOT_NAMED 1941-08-08 06:00:00 NR 15.5581 147.771 main 1983 1983 __________P___ -1 15.5581 147.771 4 8 334
1941219N11152 1941 41 WP MM NOT_NAMED 1941-08-08 09:00:00 NR 15.9000 147.600 main 2016 2016 __________O___ -1 15.9000 147.600 4 7 336
1941219N11152 1941 41 WP MM NOT_NAMED 1941-08-08 12:00:00 NR 16.2376 147.453 main 2049 2049 __________P___ -1 16.2376 147.453 4 7 337
1941219N11152 1941 41 WP MM NOT_NAMED 1941-08-08 15:00:00 NR 16.5771 147.301 main 2094 2094 __________P___ -1 16.5771 147.301 4 8 335
1941219N11152 1941 41 WP MM NOT_NAMED 1941-08-08 18:00:00 NR 16.9281 147.124 main 2128 2084 __________P___ -1 16.9281 147.124 4 8 332
1941219N11152 1941 41 WP MM NOT_NAMED 1941-08-08 21:00:00 NR 17.3000 146.900 main 2084 2032 __________O___ -1 17.3000 146.900 4 9 328
1941219N11152 1941 41 WP MM NOT_NAMED 1941-08-09 00:00:00 NR 17.7279 146.605 main 2032 1979 __________P___ -1 17.7279 146.605 4 11 325
1941219N11152 1941 41 WP MM NOT_NAMED 1941-08-09 03:00:00 NR 18.1726 146.261 main 1969 1914 __________P___ -1 18.1726 146.261 4 11 322
1941219N11152 1941 41 WP MM NOT_NAMED 1941-08-09 06:00:00 NR 18.6060 145.886 main 1914 1859 __________P___ -1 18.6060 145.886 4 11 319
1941219N11152 1941 41 WP MM NOT_NAMED 1941-08-09 09:00:00 NR 19.0000 145.500 main 1859 1818 __________O___ -1 19.0000 145.500 4 10 315
1941219N11152 1941 41 WP MM NOT_NAMED 1941-08-09 12:00:00 NR 19.3219 145.136 main 1815 1774 __________P___ -1 19.3219 145.136 4 9 311
1941219N11152 1941 41 WP MM NOT_NAMED 1941-08-09 15:00:00 NR 19.6021 144.764 main 1774 1740 __________P___ -1 19.6021 144.764 4 9 307
1941219N11152 1941 41 WP MM NOT_NAMED 1941-08-09 18:00:00 NR 19.8563 144.386 main 1730 1691 __________P___ -1 19.8563 144.386 4 9 305
1941219N11152 1941 41 WP MM NOT_NAMED 1941-08-09 21:00:00 NR 20.1000 144.000 main 1691 1643 __________O___ -1 20.1000 144.000 4 9 306
1941219N11152 1941 41 WP MM NOT_NAMED 1941-08-10 00:00:00 NR 20.3730 143.619 main 1643 1609 __________P___ -1 20.3730 143.619 4 9 307
1941219N11152 1941 41 WP MM NOT_NAMED 1941-08-10 03:00:00 NR 20.6369 143.230 main 1604 1556 __________P___ -1 20.6369 143.230 4 9 304
1941219N11152 1941 41 WP MM NOT_NAMED 1941-08-10 06:00:00 NR 20.8823 142.825 main 1556 1519 __________P___ -1 20.8823 142.825 4 9 301
1941219N11152 1941 41 WP MM NOT_NAMED 1941-08-10 09:00:00 NR 21.1000 142.400 main 1519 1482 __________O___ -1 21.1000 142.400 4 9 296
1941219N11152 1941 41 WP MM NOT_NAMED 1941-08-10 12:00:00 NR 21.2823 141.962 main 1482 1452 __________P___ -1 21.2823 141.962 4 9 292
1941219N11152 1941 41 WP MM NOT_NAMED 1941-08-10 15:00:00 NR 21.4368 141.502 main 1452 1413 __________P___ -1 21.4368 141.502 4 9 288
1941219N11152 1941 41 WP MM NOT_NAMED 1941-08-10 18:00:00 NR 21.5728 141.015 main 1413 1385 __________P___ -1 21.5728 141.015 4 10 286
1941219N11152 1941 41 WP MM NOT_NAMED 1941-08-10 21:00:00 NR 21.7000 140.500 main 1385 1359 __________O___ -1 21.7000 140.500 4 10 285
1941219N11152 1941 41 WP MM NOT_NAMED 1941-08-11 00:00:00 NR 21.8403 139.950 main 1356 1315 __________P___ -1 21.8403 139.950 4 11 285
1941219N11152 1941 41 WP MM NOT_NAMED 1941-08-11 03:00:00 NR 21.9724 139.372 main 1315 1271 __________P___ -1 21.9724 139.372 4 11 283
1941219N11152 1941 41 WP MM NOT_NAMED 1941-08-11 06:00:00 NR 22.0933 138.784 main 1271 1228 __________P___ -1 22.0933 138.784 4 11 282
1941219N11152 1941 41 WP MM NOT_NAMED 1941-08-11 09:00:00 NR 22.2000 138.200 main 1228 1192 __________O___ -1 22.2000 138.200 4 11 279
1941219N11152 1941 41 WP MM NOT_NAMED 1941-08-11 12:00:00 NR 22.2728 137.626 main 1187 1160 __________P___ -1 22.2728 137.626 4 11 277
1941219N11152 1941 41 WP MM NOT_NAMED 1941-08-11 15:00:00 NR 22.3347 137.061 main 1160 1119 __________P___ -1 22.3347 137.061 4 10 277
1941219N11152 1941 41 WP MM NOT_NAMED 1941-08-11 18:00:00 NR 22.4042 136.516 main 1119 1084 __________P___ -1 22.4042 136.516 4 10 280
1941219N11152 1941 41 WP MM NOT_NAMED 1941-08-11 21:00:00 NR 22.5000 136.000 main 1084 1051 __________O___ -1 22.5000 136.000 4 10 283
1941219N11152 1941 41 WP MM NOT_NAMED 1941-08-12 00:00:00 NR 22.6254 135.509 main 1051 1013 __________P___ -1 22.6254 135.509 4 9 288
1941219N11152 1941 41 WP MM NOT_NAMED 1941-08-12 03:00:00 NR 22.7818 135.047 main 1009 973 __________P___ -1 22.7818 135.047 4 9 293
1941219N11152 1941 41 WP MM NOT_NAMED 1941-08-12 06:00:00 NR 22.9724 134.612 main 973 937 __________P___ -1 22.9724 134.612 4 9 298
1941219N11152 1941 41 WP MM NOT_NAMED 1941-08-12 09:00:00 NR 23.2000 134.200 main 937 891 __________O___ -1 23.2000 134.200 4 9 303
1941219N11152 1941 41 WP MM NOT_NAMED 1941-08-12 12:00:00 NR 23.4722 133.763 main 891 846 __________P___ -1 23.4722 133.763 4 10 307
1941219N11152 1941 41 WP MM NOT_NAMED 1941-08-12 15:00:00 NR 23.7776 133.354 main 846 803 __________P___ -1 23.7776 133.354 4 9 311
1941219N11152 1941 41 WP MM NOT_NAMED 1941-08-12 18:00:00 NR 24.0942 132.992 main 803 762 __________P___ -1 24.0942 132.992 4 9 316
1941219N11152 1941 41 WP MM NOT_NAMED 1941-08-12 21:00:00 NR 24.4000 132.700 main 762 736 __________O___ -1 24.4000 132.700 4 7 321
1941219N11152 1941 41 WP MM NOT_NAMED 1941-08-13 00:00:00 NR 24.6557 132.486 main 725 701 __________P___ -1 24.6557 132.486 4 6 327
1941219N11152 1941 41 WP MM NOT_NAMED 1941-08-13 03:00:00 NR 24.8994 132.344 main 698 677 __________P___ -1 24.8994 132.344 4 5 337
1941219N11152 1941 41 WP MM NOT_NAMED 1941-08-13 06:00:00 NR 25.1434 132.255 main 677 642 __________P___ -1 25.1434 132.255 4 5 345
1941219N11152 1941 41 WP MM NOT_NAMED 1941-08-13 09:00:00 NR 25.4000 132.200 main 642 618 __________O___ -1 25.4000 132.200 4 5 344
1941219N11152 1941 41 WP MM NOT_NAMED 1941-08-13 12:00:00 NR 25.6124 132.107 main 618 594 __________P___ -1 25.6124 132.107 4 5 343
1941219N11152 1941 41 WP MM NOT_NAMED 1941-08-13 15:00:00 NR 25.8499 132.047 main 594 561 __________P___ -1 25.8499 132.047 4 6 354
1941219N11152 1941 41 WP MM NOT_NAMED 1941-08-13 18:00:00 NR 26.1624 132.039 main 550 509 __________P___ -1 26.1624 132.039 4 8 2
1941219N11152 1941 41 WP MM NOT_NAMED 1941-08-13 21:00:00 NR 26.6000 132.100 main 509 448 __________O___ -1 26.6000 132.100 4 11 11
1941219N11152 1941 41 WP MM NOT_NAMED 1941-08-14 00:00:00 NR 27.2211 132.259 main 451 387 __________P___ -1 27.2211 132.259 4 14 14
1941219N11152 1941 41 WP MM NOT_NAMED 1941-08-14 03:00:00 NR 27.9657 132.487 main 377 320 __________P___ -1 27.9657 132.487 4 16 15
1941219N11152 1941 41 WP MM NOT_NAMED 1941-08-14 06:00:00 NR 28.7775 132.747 main 311 252 __________P___ -1 28.7775 132.747 4 17 15
1941219N11152 1941 41 WP MM NOT_NAMED 1941-08-14 09:00:00 NR 29.6000 133.000 main 252 210 __________O___ -1 29.6000 133.000 4 16 14
1941219N11152 1941 41 WP MM NOT_NAMED 1941-08-14 12:00:00 NR 30.3050 133.169 main 210 185 __________P___ -1 30.3050 133.169 4 15 11
1941219N11152 1941 41 WP MM NOT_NAMED 1941-08-14 15:00:00 NR 31.0171 133.326 main 185 121 __________P___ -1 31.0171 133.326 4 15 11
1941219N11152 1941 41 WP MM NOT_NAMED 1941-08-14 18:00:00 NR 31.7706 133.495 main 110 65 __________P___ -1 31.7706 133.495 4 16 11
1941219N11152 1941 41 WP MM NOT_NAMED 1941-08-14 21:00:00 NR 32.6000 133.700 main 66 0 __________O___ -1 32.6000 133.700 4 19 12
1941219N11152 1941 41 WP MM NOT_NAMED 1941-08-15 00:00:00 NR 33.5817 133.939 main 0 0 __________P___ -1 33.5817 133.939 4 21 12
1941219N11152 1941 41 WP MM NOT_NAMED 1941-08-15 03:00:00 NR 34.6338 134.225 main 0 0 __________P___ -1 34.6338 134.225 4 22 14
1941219N11152 1941 41 WP MM NOT_NAMED 1941-08-15 06:00:00 NR 35.6940 134.574 main 11 11 __________P___ -1 35.6940 134.574 4 22 17
1941219N11152 1941 41 WP MM NOT_NAMED 1941-08-15 09:00:00 NR 36.7000 135.000 main 107 105 __________O___ -1 36.7000 135.000 4 21 22
1941219N11152 1941 41 WP MM NOT_NAMED 1941-08-15 12:00:00 NR 37.6552 135.547 main 119 110 __________P___ -1 37.6552 135.547 4 21 27
1941219N11152 1941 41 WP MM NOT_NAMED 1941-08-15 15:00:00 NR 38.5344 136.169 main 133 133 __________P___ -1 38.5344 136.169 4 19 31
1941219N11152 1941 41 WP MM NOT_NAMED 1941-08-15 18:00:00 NR 39.2961 136.806 main 211 195 __________P___ -1 39.2961 136.806 4 17 35
1941219N11152 1941 41 WP MM NOT_NAMED 1941-08-15 21:00:00 NR 39.9000 137.400 main 195 164 __________O___ -1 39.9000 137.400 4 13 38
1941219N11152 1941 41 WP MM NOT_NAMED 1941-08-16 00:00:00 NR 40.3263 137.857 main 158 143 __________P___ -1 40.3263 137.857 4 10 43
1941219N11152 1941 41 WP MM NOT_NAMED 1941-08-16 03:00:00 NR 40.5998 138.254 main 134 109 __________P___ -1 40.5998 138.254 4 7 52
1941219N11152 1941 41 WP MM NOT_NAMED 1941-08-16 06:00:00 NR 40.7735 138.623 main 111 82 __________P___ -1 40.7735 138.623 4 6 62
1941219N11152 1941 41 WP MM NOT_NAMED 1941-08-16 09:00:00 NR 40.9000 139.000 main 82 60 __________O___ -1 40.9000 139.000 4 6 67
1941219N11152 1941 41 WP MM NOT_NAMED 1941-08-16 12:00:00 NR 41.0224 139.411 main 60 33 __________P___ -1 41.0224 139.411 4 7 69
1941219N11152 1941 41 WP MM NOT_NAMED 1941-08-16 15:00:00 NR 41.1477 139.855 main 25 8 __________P___ -1 41.1477 139.855 4 7 70
1941219N11152 1941 41 WP MM NOT_NAMED 1941-08-16 18:00:00 NR 41.2741 140.322 main 11 0 __________P___ -1 41.2741 140.322 4 8 70
1941219N11152 1941 41 WP MM NOT_NAMED 1941-08-16 21:00:00 NR 41.4000 140.800 main 0 __________O___ -1 41.4000 140.800 4 8 71

デジタル台風データ・検索

IBTrACS Databaseについて

本データベースは、米国NOAAが公開する1842年以降の世界の熱帯低気圧のベストトラックデータアーカイブInternational Best Track Archive for Climate Stewardship (IBTrACS)を、ウェブで閲覧しやすい形式に変換したものです。

最終更新日:2021-12-06